Time;durP1;ratioP1;P1;durP2;ratioP2;P2;SDS_P1;SDS_P2;PMS_P1;PMS_P2;Temp;Humidity;BMP_temperature;BMP_pressure;BME280_temperature;BME280_humidity;BME280_pressure;Samples;Min_cycle;Max_cycle;Signal;HPM_P1;HPM_P2
2022/11/06 00:01:05;;;;;;;42.70;30.70;;;;;;;7.99;100.00;99261.77;106296;1281;58992;-78
2022/11/06 00:03:32;;;;;;;40.30;30.10;;;;;;;7.98;100.00;99262.87;105836;1292;67243;-78
2022/11/06 00:08:44;;;;;;;34.80;26.80;;;;;;;7.96;100.00;99274.62;106382;1278;63809;-78
2022/11/06 00:11:13;;;;;;;33.70;25.90;;;;;;;7.96;100.00;99276.77;106352;1278;58964;-78
2022/11/06 00:13:40;;;;;;;40.10;27.60;;;;;;;7.95;100.00;99280.16;106373;1279;59358;-78
2022/11/06 00:16:10;;;;;;;35.50;27.80;;;;;;;7.95;100.00;99282.66;106426;1285;65909;-79
2022/11/06 00:18:38;;;;;;;34.20;26.50;;;;;;;7.94;100.00;99283.77;106543;1278;58918;-80
2022/11/06 00:21:10;;;;;;;34.60;26.80;;;;;;;7.93;100.00;99286.83;106514;1278;65229;-79
2022/11/06 00:23:38;;;;;;;40.00;26.90;;;;;;;7.92;100.00;99287.92;106359;1285;58901;-79
2022/11/06 00:26:12;;;;;;;33.60;25.80;;;;;;;7.91;100.00;99289.91;106263;1279;58841;-79
2022/11/06 00:28:39;;;;;;;32.20;24.20;;;;;;;7.90;100.00;99292.08;106436;1288;64522;-77
2022/11/06 00:31:08;;;;;;;30.90;22.80;;;;;;;7.89;100.00;99294.44;106375;1285;60891;-78
2022/11/06 00:33:34;;;;;;;32.80;25.30;;;;;;;7.89;100.00;99298.70;106352;1285;64812;-78
2022/11/06 00:36:03;;;;;;;36.10;25.40;;;;;;;7.88;100.00;99296.64;106099;1288;58881;-77
2022/11/06 00:38:30;;;;;;;32.00;23.10;;;;;;;7.87;100.00;99298.97;106130;1288;58832;-78
2022/11/06 00:41:02;;;;;;;32.50;24.60;;;;;;;7.86;100.00;99300.60;106370;1285;65802;-78
2022/11/06 00:43:29;;;;;;;30.70;22.00;;;;;;;7.85;100.00;99297.64;105954;1284;59708;-79
2022/11/06 00:46:12;;;;;;;27.80;22.60;;;;;;;7.85;100.00;99298.91;106101;1285;63751;-78
2022/11/06 00:48:40;;;;;;;28.40;22.40;;;;;;;7.84;100.00;99302.11;106373;1286;58772;-78
2022/11/06 00:51:14;;;;;;;31.20;23.10;;;;;;;7.83;100.00;99304.81;106370;1278;58825;-78
2022/11/06 00:53:42;;;;;;;29.50;22.50;;;;;;;7.83;100.00;99305.37;106380;1278;66820;-78
2022/11/06 00:56:13;;;;;;;35.00;23.70;;;;;;;7.82;100.00;99302.06;106351;1278;60737;-78
2022/11/06 00:58:39;;;;;;;28.30;22.40;;;;;;;7.80;100.00;99299.83;106349;1285;63772;-78
2022/11/06 01:01:23;;;;;;;31.60;21.70;;;;;;;7.80;100.00;99298.09;106396;1278;58910;-78
2022/11/06 01:03:55;;;;;;;32.30;22.90;;;;;;;7.79;100.00;99297.60;106379;1290;58912;-78
2022/11/06 01:06:24;;;;;;;31.50;22.00;;;;;;;7.79;100.00;99298.66;106090;1281;66791;-78
2022/11/06 01:08:51;;;;;;;32.00;23.40;;;;;;;7.79;100.00;99298.48;106348;1286;69215;-78
2022/11/06 01:11:21;;;;;;;28.50;22.40;;;;;;;7.79;100.00;99300.77;106272;1281;63767;-78
2022/11/06 01:13:50;;;;;;;31.80;22.80;;;;;;;7.79;100.00;99299.92;106365;1285;59000;-79
2022/11/06 01:16:17;;;;;;;31.20;22.10;;;;;;;7.79;100.00;99304.33;106339;1276;58840;-79
2022/11/06 01:18:45;;;;;;;29.90;22.30;;;;;;;7.78;100.00;99306.66;106359;1283;66820;-79
2022/11/06 01:21:16;;;;;;;31.10;22.90;;;;;;;7.77;100.00;99309.23;106384;1285;60748;-79
2022/11/06 01:23:44;;;;;;;32.00;22.50;;;;;;;7.76;100.00;99308.38;106379;1285;62517;-79
2022/11/06 01:26:12;;;;;;;32.90;23.00;;;;;;;7.75;100.00;99306.65;106241;1295;58973;-78
2022/11/06 01:28:40;;;;;;;32.90;23.20;;;;;;;7.75;100.00;99306.46;106118;1285;58975;-78
2022/11/06 01:31:19;;;;;;;31.60;23.20;;;;;;;7.75;100.00;99306.66;106373;1285;66144;-79
2022/11/06 01:33:46;;;;;;;30.00;23.00;;;;;;;7.73;100.00;99304.30;106410;1284;59655;-79
2022/11/06 01:36:15;;;;;;;33.50;22.40;;;;;;;7.71;100.00;99301.36;106363;1284;65019;-79
2022/11/06 01:38:43;;;;;;;30.80;21.60;;;;;;;7.70;100.00;99299.14;106337;1286;58945;-79
2022/11/06 01:41:16;;;;;;;33.90;22.00;;;;;;;7.69;100.00;99296.53;106255;1287;58833;-79
2022/11/06 01:43:43;;;;;;;30.60;21.80;;;;;;;7.68;100.00;99290.22;106357;1276;66924;-79
2022/11/06 01:46:10;;;;;;;32.90;22.70;;;;;;;7.66;100.00;99286.73;106363;1278;68034;-79
2022/11/06 01:48:39;;;;;;;30.10;21.00;;;;;;;7.65;100.00;99293.38;106330;1286;64907;-78
2022/11/06 01:51:07;;;;;;;29.50;21.30;;;;;;;7.61;100.00;99296.90;106358;1285;58993;-79
2022/11/06 01:53:35;;;;;;;34.60;23.40;;;;;;;7.58;100.00;99295.48;106363;1285;59019;-78
2022/11/06 01:56:06;;;;;;;35.70;23.80;;;;;;;7.57;100.00;99296.59;106341;1276;66781;-79
2022/11/06 01:58:35;;;;;;;33.40;24.00;;;;;;;7.56;100.00;99297.38;106372;1284;60072;-79
2022/11/06 02:01:03;;;;;;;35.20;26.90;;;;;;;7.53;100.00;99296.61;106360;1285;63957;-78
2022/11/06 02:03:30;;;;;;;33.20;24.80;;;;;;;7.50;100.00;99298.00;106125;1288;58861;-79
2022/11/06 02:05:57;;;;;;;35.00;25.10;;;;;;;7.47;100.00;99296.23;106367;1285;59007;-78
2022/11/06 02:08:24;;;;;;;29.40;23.40;;;;;;;7.45;100.00;99297.88;106345;1278;65839;-78
2022/11/06 02:10:52;;;;;;;28.00;21.90;;;;;;;7.44;100.00;99299.89;106381;1284;59775;-78
2022/11/06 02:13:40;;;;;;;31.10;21.70;;;;;;;7.41;100.00;99299.84;106337;1278;63772;-78
2022/11/06 02:16:56;;;;;;;32.20;23.10;;;;;;;7.39;100.00;99301.55;106348;1285;58935;-77
2022/11/06 02:19:57;;;;;;;28.40;22.60;;;;;;;7.36;100.00;99303.81;105391;1299;59124;-78
2022/11/06 02:23:02;;;;;;;30.30;23.70;;;;;;;7.35;100.00;99304.77;105367;1299;66856;-78
2022/11/06 02:25:47;;;;;;;29.70;22.90;;;;;;;7.32;100.00;99301.02;105386;1300;60775;-78
2022/11/06 02:28:38;;;;;;;29.00;23.40;;;;;;;7.29;100.00;99302.39;105358;1298;64884;-79
2022/11/06 02:31:12;;;;;;;33.60;25.60;;;;;;;7.26;100.00;99302.36;105362;1298;59040;-78
2022/11/06 02:33:48;;;;;;;34.00;25.30;;;;;;;7.23;100.00;99298.95;105378;1300;58761;-78
2022/11/06 02:36:21;;;;;;;30.60;24.70;;;;;;;7.22;100.00;99301.50;105371;1296;66879;-78
2022/11/06 02:38:55;;;;;;;31.40;23.70;;;;;;;7.20;100.00;99303.73;105377;1305;60052;-79
2022/11/06 02:41:26;;;;;;;31.80;22.90;;;;;;;7.17;100.00;99304.20;105378;1301;63776;-79
2022/11/06 02:43:55;;;;;;;32.30;24.20;;;;;;;7.15;100.00;99304.14;105350;1300;59072;-78
2022/11/06 02:46:27;;;;;;;30.30;23.10;;;;;;;7.13;100.00;99307.58;105261;1292;59317;-78
2022/11/06 02:49:01;;;;;;;31.60;24.40;;;;;;;7.11;100.00;99310.67;105382;1293;66052;-78
2022/11/06 02:51:31;;;;;;;37.90;28.50;;;;;;;7.10;100.00;99314.27;105375;1297;59845;-78
2022/11/06 02:54:01;;;;;;;33.10;25.80;;;;;;;7.07;100.00;99321.63;105389;1298;63832;-78
2022/11/06 02:56:33;;;;;;;32.50;24.80;;;;;;;7.06;100.00;99323.64;105862;1286;59015;-78
2022/11/06 02:59:27;;;;;;;36.80;24.70;;;;;;;7.04;100.00;99324.60;106391;1285;59065;-78
2022/11/06 03:01:59;;;;;;;34.20;25.10;;;;;;;7.01;100.00;99324.73;106364;1286;65741;-78
2022/11/06 03:04:54;;;;;;;38.30;26.00;;;;;;;6.99;100.00;99327.48;106350;1278;61163;-78
2022/11/06 03:07:30;;;;;;;36.30;25.70;;;;;;;6.98;100.00;99324.90;106344;1285;63748;-78
2022/11/06 03:09:57;;;;;;;38.30;26.80;;;;;;;6.96;100.00;99323.39;106092;1288;58888;-78
2022/11/06 03:13:03;;;;;;;37.60;26.30;;;;;;;6.94;100.00;99322.60;106359;1286;58876;-78
2022/11/06 03:15:40;;;;;;;37.90;27.60;;;;;;;6.92;100.00;99325.36;106354;1278;64534;-78
2022/11/06 03:18:21;;;;;;;52.80;33.30;;;;;;;6.90;100.00;99332.50;106364;1278;59673;-78
2022/11/06 03:20:55;;;;;;;50.40;33.50;;;;;;;6.89;100.00;99336.08;106360;1285;63969;-79
2022/11/06 03:23:43;;;;;;;49.10;31.30;;;;;;;6.87;100.00;99337.23;106367;1278;58998;-78
2022/11/06 03:26:18;;;;;;;46.80;31.70;;;;;;;6.85;100.00;99335.95;106388;1286;59259;-78
2022/11/06 03:29:23;;;;;;;49.60;31.90;;;;;;;6.83;100.00;99337.05;106161;1288;64538;-78
2022/11/06 03:32:08;;;;;;;41.20;29.10;;;;;;;6.82;100.00;99338.02;106358;1285;59774;-78
2022/11/06 03:34:42;;;;;;;42.00;31.40;;;;;;;6.79;100.00;99333.53;106377;1278;64802;-79
2022/11/06 03:37:15;;;;;;;39.80;30.50;;;;;;;6.78;100.00;99334.47;106344;1285;58888;-78
2022/11/06 03:39:49;;;;;;;41.20;29.70;;;;;;;6.76;100.00;99334.36;106368;1285;58912;-78
2022/11/06 03:42:24;;;;;;;42.70;31.50;;;;;;;6.75;100.00;99339.20;106352;1286;66968;-78
2022/11/06 03:44:56;;;;;;;42.60;30.10;;;;;;;6.74;100.00;99340.45;106272;1288;58985;-78
2022/11/06 03:47:31;;;;;;;42.10;30.20;;;;;;;6.73;100.00;99340.36;106352;1275;63723;-78
2022/11/06 03:50:02;;;;;;;42.20;30.00;;;;;;;6.71;100.00;99341.50;106342;1286;58870;-78
2022/11/06 03:52:34;;;;;;;;;;;;;;;6.70;100.00;99341.52;106361;1285;58788;-78
2022/11/06 03:55:10;;;;;;;42.60;29.00;;;;;;;6.69;100.00;99346.37;106034;1291;66791;-78
2022/11/06 03:58:05;;;;;;;44.90;32.10;;;;;;;6.68;100.00;99349.06;106369;1286;59866;-78
2022/11/06 04:00:35;;;;;;;45.10;32.80;;;;;;;6.67;100.00;99351.75;105671;1294;63765;-80
2022/11/06 04:03:12;;;;;;;39.30;29.10;;;;;;;6.67;100.00;99356.36;105670;1294;59218;-79
2022/11/06 04:05:44;;;;;;;44.80;30.10;;;;;;;6.65;100.00;99359.96;105668;1283;58951;-79
2022/11/06 04:13:57;;;;;;;40.90;28.80;;;;;;;6.60;100.00;99361.58;105692;1287;65028;-79
2022/11/06 04:16:26;;;;;;;45.90;29.00;;;;;;;6.58;100.00;99362.02;105673;1294;59008;-80
2022/11/06 04:18:53;;;;;;;37.90;28.40;;;;;;;6.57;100.00;99360.66;105710;1294;59071;-78
2022/11/06 04:22:01;;;;;;;39.00;27.20;;;;;;;6.56;100.00;99360.02;105684;1294;66115;-79
2022/11/06 04:27:50;;;;;;;43.70;31.80;;;;;;;6.54;100.00;99354.61;104667;1297;64938;-79
2022/11/06 04:30:17;;;;;;;43.20;31.40;;;;;;;6.54;100.00;99354.80;105243;1297;59235;-79
2022/11/06 04:32:53;;;;;;;39.00;30.40;;;;;;;6.53;100.00;99359.08;105098;1306;58950;-79
2022/11/06 04:35:36;;;;;;;39.70;28.70;;;;;;;6.52;100.00;99360.73;105251;1306;67130;-79
2022/11/06 04:38:18;;;;;;;43.10;29.10;;;;;;;6.50;100.00;99363.64;105559;1293;58939;-78
2022/11/06 04:40:56;;;;;;;45.40;30.30;;;;;;;6.48;100.00;99364.61;105772;1292;64987;-79
2022/11/06 04:43:40;;;;;;;43.10;30.70;;;;;;;6.46;100.00;99365.58;105782;1294;59119;-79
2022/11/06 04:46:12;;;;;;;42.70;31.30;;;;;;;6.45;100.00;99370.36;105761;1290;59335;-79
2022/11/06 04:48:40;;;;;;;44.90;30.10;;;;;;;6.43;100.00;99368.02;105767;1294;66820;-78
2022/11/06 04:51:09;;;;;;;39.20;27.90;;;;;;;6.42;100.00;99366.64;105799;1294;60823;-78
2022/11/06 04:53:38;;;;;;;43.80;29.80;;;;;;;6.41;100.00;99368.48;105569;1302;64821;-77
2022/11/06 04:56:12;;;;;;;45.50;27.30;;;;;;;6.40;100.00;99371.33;105623;1298;58738;-78
2022/11/06 04:58:39;;;;;;;42.30;29.40;;;;;;;6.38;100.00;99370.70;105493;1296;59137;-79
2022/11/06 05:01:05;;;;;;;39.10;28.90;;;;;;;6.36;100.00;99370.98;105817;1293;66957;-79
2022/11/06 05:03:32;;;;;;;43.60;28.20;;;;;;;6.34;100.00;99371.05;106358;1286;58828;-78
2022/11/06 05:05:59;;;;;;;40.70;29.50;;;;;;;6.34;100.00;99371.76;106032;1286;63809;-79
2022/11/06 05:08:25;;;;;;;42.60;29.20;;;;;;;6.34;100.00;99373.66;106367;1275;58921;-79
2022/11/06 05:10:52;;;;;;;38.40;29.10;;;;;;;6.35;100.00;99377.19;106381;1284;58839;-79
2022/11/06 05:13:18;;;;;;;48.40;31.10;;;;;;;6.35;100.00;99373.11;106353;1285;65798;-78
2022/11/06 05:15:45;;;;;;;37.70;29.10;;;;;;;6.36;100.00;99373.06;106054;1287;60720;-78
2022/11/06 05:18:12;;;;;;;45.20;30.20;;;;;;;6.35;100.00;99371.85;106336;1280;62655;-78
2022/11/06 05:20:38;;;;;;;45.00;33.70;;;;;;;6.33;100.00;99372.14;106591;1278;58911;-78
2022/11/06 05:23:05;;;;;;;43.50;35.10;;;;;;;6.29;100.00;99374.41;106461;1283;58741;-78
2022/11/06 05:25:34;;;;;;;51.40;39.50;;;;;;;6.28;100.00;99377.48;106344;1285;66981;-79
2022/11/06 05:28:06;;;;;;;47.70;37.50;;;;;;;6.26;100.00;99378.96;106291;1290;60792;-78
2022/11/06 05:30:35;;;;;;;47.00;40.90;;;;;;;6.24;100.00;99382.23;106380;1285;63944;-78
2022/11/06 05:33:02;;;;;;;53.10;38.90;;;;;;;6.23;100.00;99382.96;106339;1285;58895;-79
2022/11/06 05:35:29;;;;;;;43.90;33.70;;;;;;;6.23;100.00;99383.36;106358;1284;58641;-78
2022/11/06 05:38:00;;;;;;;44.30;33.50;;;;;;;6.22;100.00;99382.15;106354;1284;65717;-78
2022/11/06 05:40:27;;;;;;;48.30;35.30;;;;;;;6.21;100.00;99379.36;106391;1284;60741;-79
2022/11/06 05:42:54;;;;;;;47.60;34.00;;;;;;;6.21;100.00;99383.25;106419;1285;63804;-78
2022/11/06 05:45:20;;;;;;;49.00;36.10;;;;;;;6.21;100.00;99387.83;106372;1292;58979;-78
2022/11/06 05:47:47;;;;;;;55.70;39.00;;;;;;;6.22;100.00;99394.33;106348;1285;59721;-78
2022/11/06 05:50:13;;;;;;;56.90;44.20;;;;;;;6.22;100.00;99397.48;106339;1285;65743;-79
2022/11/06 05:52:40;;;;;;;53.10;41.30;;;;;;;6.22;100.00;99398.05;106349;1285;59786;-79
2022/11/06 05:55:07;;;;;;;57.70;41.80;;;;;;;6.21;100.00;99403.00;106353;1283;64833;-78
2022/11/06 05:57:34;;;;;;;57.30;44.90;;;;;;;6.19;100.00;99399.91;106060;1292;58950;-78
2022/11/06 06:00:01;;;;;;;59.60;46.10;;;;;;;6.19;100.00;99402.23;106354;1284;58932;-79
2022/11/06 06:02:27;;;;;;;54.30;43.20;;;;;;;6.19;100.00;99404.52;106363;1286;66986;-79
2022/11/06 06:04:54;;;;;;;55.00;41.70;;;;;;;6.19;100.00;99408.41;106072;1294;60961;-79
2022/11/06 06:07:21;;;;;;;55.20;42.40;;;;;;;6.19;100.00;99407.67;106319;1283;63757;-79
2022/11/06 06:09:48;;;;;;;53.50;42.00;;;;;;;6.22;100.00;99405.98;106355;1285;59129;-79
2022/11/06 06:12:14;;;;;;;51.60;39.40;;;;;;;6.25;100.00;99410.58;106049;1298;59331;-79
2022/11/06 06:14:41;;;;;;;52.00;38.40;;;;;;;6.28;100.00;99409.41;106338;1285;66761;-78
2022/11/06 06:17:09;;;;;;;46.00;35.50;;;;;;;6.31;100.00;99408.21;106347;1277;59868;-79
2022/11/06 06:19:35;;;;;;;46.40;33.40;;;;;;;6.35;100.00;99406.81;106273;1289;64040;-80
2022/11/06 06:22:02;;;;;;;43.00;32.60;;;;;;;6.38;100.00;99409.14;106349;1278;59120;-79
2022/11/06 06:24:29;;;;;;;41.40;30.40;;;;;;;6.41;100.00;99413.09;106374;1284;58917;-80
2022/11/06 06:26:56;;;;;;;43.80;32.30;;;;;;;6.44;100.00;99415.09;105828;1287;64615;-79
2022/11/06 06:29:22;;;;;;;41.20;30.70;;;;;;;6.46;100.00;99418.00;106382;1292;60709;-80
2022/11/06 06:31:49;;;;;;;39.60;28.80;;;;;;;6.49;100.00;99421.59;106130;1285;62580;-78
2022/11/06 06:34:16;;;;;;;38.20;30.00;;;;;;;6.52;100.00;99420.02;106349;1292;59003;-79
2022/11/06 06:36:43;;;;;;;38.90;29.50;;;;;;;6.57;100.00;99418.06;106265;1289;60195;-79
2022/11/06 06:39:10;;;;;;;38.40;29.60;;;;;;;6.61;100.00;99416.46;106379;1283;66746;-79
2022/11/06 06:41:37;;;;;;;39.30;30.30;;;;;;;6.67;100.00;99421.52;106254;1279;61214;-79
2022/11/06 06:44:03;;;;;;;35.70;27.40;;;;;;;6.73;100.00;99426.16;106349;1286;64810;-79
2022/11/06 06:46:30;;;;;;;39.80;31.40;;;;;;;6.80;100.00;99426.76;106335;1270;58891;-79
2022/11/06 06:48:56;;;;;;;42.20;32.10;;;;;;;6.87;100.00;99421.14;106358;1279;58887;-79
2022/11/06 06:51:23;;;;;;;46.70;35.60;;;;;;;6.94;100.00;99420.46;106359;1284;66774;-78
2022/11/06 06:53:50;;;;;;;49.00;42.10;;;;;;;7.00;100.00;99423.34;106352;1286;61543;-78
2022/11/06 06:56:17;;;;;;;55.20;44.90;;;;;;;7.08;100.00;99426.88;106243;1285;63908;-78
2022/11/06 06:58:43;;;;;;;56.90;47.70;;;;;;;7.14;100.00;99419.88;106353;1292;58814;-80
2022/11/06 07:01:10;;;;;;;56.50;46.30;;;;;;;7.20;100.00;99415.56;106362;1284;58801;-79
2022/11/06 07:03:37;;;;;;;53.80;43.40;;;;;;;7.25;100.00;99414.96;106324;1282;66947;-79
2022/11/06 07:06:04;;;;;;;43.20;37.20;;;;;;;7.31;100.00;99417.55;106367;1284;60725;-79
2022/11/06 07:08:31;;;;;;;40.90;31.60;;;;;;;7.33;100.00;99415.15;106326;1285;64768;-80
2022/11/06 07:10:59;;;;;;;44.00;36.30;;;;;;;7.29;100.00;99415.13;106247;1288;59182;-79
2022/11/06 07:13:26;;;;;;;41.40;34.30;;;;;;;7.26;100.00;99416.89;106339;1284;58780;-79
2022/11/06 07:15:53;;;;;;;40.40;34.10;;;;;;;7.23;100.00;99418.41;106154;1288;66049;-79
2022/11/06 07:18:20;;;;;;;46.80;35.60;;;;;;;7.21;100.00;99422.42;106358;1284;59918;-79
2022/11/06 07:20:47;;;;;;;40.50;33.50;;;;;;;7.16;100.00;99425.63;106356;1284;64910;-79
2022/11/06 07:23:13;;;;;;;43.30;35.70;;;;;;;7.11;100.00;99425.52;106350;1284;58876;-79
2022/11/06 07:25:40;;;;;;;44.00;33.70;;;;;;;7.10;100.00;99423.61;106077;1287;58854;-79
2022/11/06 07:28:07;;;;;;;48.10;37.50;;;;;;;7.10;100.00;99419.20;106353;1285;66973;-79
2022/11/06 07:30:35;;;;;;;52.70;38.00;;;;;;;7.08;100.00;99418.23;106381;1285;67821;-80
2022/11/06 07:33:04;;;;;;;45.50;34.40;;;;;;;7.04;100.00;99420.90;106373;1292;72128;-80
2022/11/06 07:35:32;;;;;;;49.80;37.50;;;;;;;7.01;100.00;99423.50;106355;1286;58818;-79
2022/11/06 07:38:03;;;;;;;45.40;36.00;;;;;;;6.98;100.00;99426.79;106364;1291;58797;-80
2022/11/06 07:40:29;;;;;;;53.20;36.50;;;;;;;6.97;100.00;99425.29;106348;1291;66772;-80
2022/11/06 07:43:05;;;;;;;50.10;34.70;;;;;;;6.95;100.00;99428.52;106136;1288;60869;-79
2022/11/06 07:45:33;;;;;;;44.80;34.00;;;;;;;6.93;100.00;99431.99;106339;1284;64853;-79
2022/11/06 07:48:00;;;;;;;56.80;35.10;;;;;;;6.89;100.00;99426.50;106373;1283;58906;-79
2022/11/06 07:50:27;;;;;;;64.10;32.90;;;;;;;6.85;100.00;99426.52;106357;1285;58818;-79
2022/11/06 07:52:53;;;;;;;76.70;29.50;;;;;;;6.81;100.00;99421.75;106364;1284;65754;-78
2022/11/06 07:55:21;;;;;;;66.00;26.20;;;;;;;6.76;100.00;99419.30;106374;1286;60786;-79
2022/11/06 07:57:48;;;;;;;46.90;24.60;;;;;;;6.72;100.00;99413.87;106359;1285;63656;-78
2022/11/06 08:00:15;;;;;;;48.60;24.50;;;;;;;6.70;100.00;99415.55;106330;1286;58968;-79
2022/11/06 08:02:41;;;;;;;74.50;25.50;;;;;;;6.70;100.00;99417.13;106362;1286;59001;-79
2022/11/06 08:05:08;;;;;;;63.10;24.30;;;;;;;6.70;100.00;99418.00;106343;1285;65849;-79
2022/11/06 08:07:35;;;;;;;58.40;24.60;;;;;;;6.69;100.00;99418.23;106355;1284;59977;-78
2022/11/06 08:10:02;;;;;;;55.00;24.80;;;;;;;6.68;100.00;99413.84;106322;1287;64916;-79
2022/11/06 08:12:29;;;;;;;62.70;24.40;;;;;;;6.71;100.00;99414.07;106338;1292;58858;-80
2022/11/06 08:14:56;;;;;;;62.60;24.30;;;;;;;6.75;100.00;99418.30;106353;1285;59047;-79
2022/11/06 08:17:22;;;;;;;89.80;25.50;;;;;;;6.77;100.00;99417.52;106398;1284;65687;-79
2022/11/06 08:19:49;;;;;;;126.70;27.70;;;;;;;6.76;100.00;99418.99;106145;1289;59734;-79
2022/11/06 08:22:16;;;;;;;124.60;28.70;;;;;;;6.76;100.00;99418.80;106360;1282;64889;-79
2022/11/06 08:24:42;;;;;;;77.80;26.70;;;;;;;6.77;100.00;99422.45;106368;1285;59176;-79
2022/11/06 08:27:09;;;;;;;99.50;27.30;;;;;;;6.81;100.00;99421.75;106340;1285;58909;-79
2022/11/06 08:29:35;;;;;;;79.90;28.10;;;;;;;6.86;100.00;99422.62;106346;1285;66860;-79
2022/11/06 08:32:02;;;;;;;79.50;26.80;;;;;;;6.88;100.00;99418.06;106354;1277;59714;-79
2022/11/06 08:34:29;;;;;;;64.60;31.40;;;;;;;6.92;100.00;99417.17;106349;1291;64783;-79
2022/11/06 08:36:56;;;;;;;48.20;30.80;;;;;;;6.95;100.00;99416.02;106339;1292;58931;-79
2022/11/06 08:39:22;;;;;;;83.10;31.70;;;;;;;6.90;100.00;99411.80;106358;1286;59640;-79
2022/11/06 08:41:49;;;;;;;63.90;29.80;;;;;;;6.84;100.00;99411.72;106328;1285;66797;-79
2022/11/06 08:44:15;;;;;;;65.10;33.10;;;;;;;6.85;100.00;99412.55;106363;1282;59646;-79
2022/11/06 08:46:42;;;;;;;63.00;30.50;;;;;;;6.89;100.00;99413.27;106040;1285;63787;-79
2022/11/06 08:49:09;;;;;;;76.20;32.50;;;;;;;6.91;100.00;99417.27;106340;1290;59131;-79
2022/11/06 08:51:35;;;;;;;67.00;36.40;;;;;;;6.88;100.00;99417.20;106369;1285;58786;-78
2022/11/06 08:54:02;;;;;;;61.70;35.20;;;;;;;6.90;100.00;99414.13;106397;1286;65675;-79
2022/11/06 08:56:28;;;;;;;76.20;37.70;;;;;;;6.96;100.00;99415.96;106356;1278;60861;-78
2022/11/06 08:58:55;;;;;;;66.20;34.40;;;;;;;6.93;100.00;99413.09;106132;1281;63822;-79
2022/11/06 09:01:23;;;;;;;53.10;30.40;;;;;;;6.89;100.00;99413.64;106350;1292;58783;-78
2022/11/06 09:03:49;;;;;;;49.40;30.60;;;;;;;6.83;100.00;99407.70;106361;1284;58872;-79
2022/11/06 09:06:16;;;;;;;44.70;27.40;;;;;;;6.87;100.00;99408.23;106363;1284;65790;-79
2022/11/06 09:08:42;;;;;;;51.90;32.10;;;;;;;6.89;100.00;99414.16;106381;1285;61122;-78
2022/11/06 09:11:10;;;;;;;56.30;30.00;;;;;;;6.94;100.00;99414.46;106063;1297;64788;-78
2022/11/06 09:13:37;;;;;;;49.10;30.80;;;;;;;7.04;100.00;99413.13;106352;1286;58800;-78
2022/11/06 09:16:05;;;;;;;64.00;34.80;;;;;;;7.16;100.00;99411.70;106249;1279;58974;-79
2022/11/06 09:18:32;;;;;;;62.40;36.40;;;;;;;7.20;100.00;99408.15;106105;1287;65787;-79
2022/11/06 09:20:59;;;;;;;39.20;29.20;;;;;;;7.27;100.00;99409.21;106123;1288;59816;-78
2022/11/06 09:23:26;;;;;;;44.90;29.50;;;;;;;7.36;100.00;99412.70;106324;1284;64910;-79
2022/11/06 09:25:53;;;;;;;39.80;29.40;;;;;;;7.40;100.00;99412.34;106309;1285;58932;-78
2022/11/06 09:28:19;;;;;;;56.10;30.60;;;;;;;7.38;100.00;99411.58;106264;1289;58815;-79
2022/11/06 09:30:46;;;;;;;66.20;31.30;;;;;;;7.38;100.00;99412.27;106332;1284;66771;-79
2022/11/06 09:33:13;;;;;;;54.20;31.00;;;;;;;7.42;100.00;99413.84;106347;1285;60713;-79
2022/11/06 09:35:40;;;;;;;49.00;32.70;;;;;;;7.51;100.00;99411.80;106320;1292;64818;-79
2022/11/06 09:38:10;;;;;;;53.20;36.20;;;;;;;7.66;100.00;99410.91;106087;1291;58915;-79
2022/11/06 09:40:39;;;;;;;44.80;30.50;;;;;;;7.83;100.00;99408.87;106349;1286;58751;-79
2022/11/06 09:43:21;;;;;;;42.40;30.70;;;;;;;7.90;100.00;99409.23;106262;1278;67336;-79
2022/11/06 09:45:50;;;;;;;34.40;28.10;;;;;;;7.98;100.00;99407.41;106315;1279;67929;-80
2022/11/06 09:48:27;;;;;;;37.00;27.00;;;;;;;8.01;100.00;99403.88;106350;1284;62895;-79
2022/11/06 09:51:04;;;;;;;40.90;30.50;;;;;;;8.08;100.00;99396.30;106042;1291;59210;-79
2022/11/06 09:53:34;;;;;;;39.60;29.00;;;;;;;8.21;100.00;99392.62;106277;1292;58959;-80
2022/11/06 09:56:02;;;;;;;42.20;28.80;;;;;;;8.27;100.00;99392.52;106302;1284;66767;-80
2022/11/06 09:58:42;;;;;;;36.20;27.50;;;;;;;8.25;100.00;99391.52;106349;1285;58872;-79
2022/11/06 10:01:17;;;;;;;41.00;30.10;;;;;;;8.35;100.00;99391.55;106059;1287;63916;-79
2022/11/06 10:03:49;;;;;;;40.80;29.90;;;;;;;8.60;100.00;99391.73;106319;1278;58831;-80
2022/11/06 10:06:19;;;;;;;43.50;30.60;;;;;;;8.79;100.00;99391.95;106129;1289;58978;-80
2022/11/06 10:08:45;;;;;;;45.30;34.60;;;;;;;8.89;100.00;99389.48;106264;1280;66887;-80
2022/11/06 10:11:15;;;;;;;48.50;34.90;;;;;;;8.98;100.00;99383.33;106264;1288;60018;-80
2022/11/06 10:14:09;;;;;;;49.10;35.40;;;;;;;9.11;100.00;99380.28;106327;1286;64912;-80
2022/11/06 10:16:42;;;;;;;51.90;38.50;;;;;;;9.18;100.00;99381.84;106359;1284;59183;-78
2022/11/06 10:19:22;;;;;;;48.30;33.90;;;;;;;9.24;100.00;99379.04;106362;1286;59369;-80
2022/11/06 10:22:01;;;;;;;47.60;31.70;;;;;;;9.28;100.00;99373.02;106362;1285;65681;-79
2022/11/06 10:24:36;;;;;;;43.50;32.10;;;;;;;9.24;100.00;99370.92;106345;1284;60822;-80
2022/11/06 10:27:13;;;;;;;44.20;33.10;;;;;;;9.17;100.00;99370.76;106373;1285;62388;-79
2022/11/06 10:29:54;;;;;;;47.10;33.90;;;;;;;9.11;100.00;99362.02;106371;1275;58852;-79
2022/11/06 10:32:39;;;;;;;50.80;37.30;;;;;;;9.09;100.00;99356.48;106314;1284;60825;-77
2022/11/06 10:35:19;;;;;;;47.40;31.70;;;;;;;9.16;100.00;99351.81;106360;1284;75868;-78
2022/11/06 10:37:51;;;;;;;42.50;31.00;;;;;;;9.36;100.00;99347.71;106118;1284;59917;-79
2022/11/06 10:40:23;;;;;;;43.30;32.80;;;;;;;9.51;100.00;99346.68;106370;1278;63010;-78
2022/11/06 10:43:01;;;;;;;44.50;31.10;;;;;;;9.54;100.00;99345.44;106338;1285;59134;-79
2022/11/06 10:45:29;;;;;;;44.70;32.80;;;;;;;9.58;100.00;99343.25;106344;1291;59078;-79
2022/11/06 10:48:05;;;;;;;43.90;33.60;;;;;;;9.73;100.00;99343.14;106371;1278;65792;-80
2022/11/06 10:50:40;;;;;;;46.60;33.80;;;;;;;9.88;100.00;99343.11;106096;1288;60738;-80
2022/11/06 10:53:21;;;;;;;47.30;34.80;;;;;;;9.96;100.00;99342.48;106373;1286;64746;-78
2022/11/06 10:55:59;;;;;;;49.80;34.80;;;;;;;10.00;100.00;99337.61;106327;1292;60288;-81
2022/11/06 10:58:31;;;;;;;43.80;32.90;;;;;;;10.05;100.00;99333.11;106347;1285;58811;-79
2022/11/06 11:01:00;;;;;;;41.20;31.70;;;;;;;10.07;100.00;99326.53;106323;1286;65740;-80
2022/11/06 11:03:34;;;;;;;50.40;35.80;;;;;;;9.99;100.00;99321.35;106350;1284;59755;-79
2022/11/06 11:06:03;;;;;;;57.90;40.90;;;;;;;9.93;100.00;99322.59;106335;1285;63583;-79
2022/11/06 11:08:29;;;;;;;61.30;43.30;;;;;;;9.87;100.00;99320.63;106331;1286;58861;-79
2022/11/06 11:11:12;;;;;;;60.60;45.00;;;;;;;9.86;100.00;99316.63;106357;1278;58964;-79
2022/11/06 11:14:01;;;;;;;64.90;44.80;;;;;;;9.85;100.00;99313.48;106363;1282;64922;-78
2022/11/06 11:16:32;;;;;;;60.10;42.10;;;;;;;9.86;100.00;99312.73;106356;1285;59795;-78
2022/11/06 11:19:32;;;;;;;56.50;40.80;;;;;;;9.90;100.00;99315.51;106322;1285;63900;-78
2022/11/06 11:22:01;;;;;;;55.70;41.10;;;;;;;9.94;100.00;99313.84;106029;1288;59038;-79
2022/11/06 11:24:28;;;;;;;59.20;42.70;;;;;;;10.03;100.00;99304.27;106039;1289;58915;-80
2022/11/06 11:27:00;;;;;;;56.30;41.70;;;;;;;10.08;100.00;99300.25;106032;1289;66777;-79
2022/11/06 11:29:52;;;;;;;59.40;40.30;;;;;;;10.10;100.00;99299.41;105884;1284;59674;-79
2022/11/06 11:32:20;;;;;;;55.40;39.30;;;;;;;10.16;100.00;99299.41;105627;1286;63815;-80
2022/11/06 11:34:51;;;;;;;52.10;38.80;;;;;;;10.27;100.00;99292.55;105421;1297;59327;-80
2022/11/06 11:37:27;;;;;;;50.00;36.50;;;;;;;10.40;100.00;99287.31;105585;1297;58803;-78
2022/11/06 11:39:54;;;;;;;54.00;34.90;;;;;;;10.51;100.00;99284.33;105438;1297;66989;-79